Time;durP1;ratioP1;P1;durP2;ratioP2;P2;SDS_P1;SDS_P2;PMS_P1;PMS_P2;Temp;Humidity;BMP_temperature;BMP_pressure;BME280_temperature;BME280_humidity;BME280_pressure;Samples;Min_cycle;Max_cycle;Signal;HPM_P1;HPM_P2
2024/02/16 00:01:01;;;;;;;2.03;1.27;;;10.00;99.90;;;;;;5037572;28;20136;-68
2024/02/16 00:03:27;;;;;;;1.38;0.93;;;10.10;99.90;;;;;;5048371;28;20379;-69
2024/02/16 00:05:53;;;;;;;2.92;1.27;;;10.00;99.90;;;;;;5048849;28;20073;-68
2024/02/16 00:08:20;;;;;;;2.95;1.10;;;10.10;99.90;;;;;;5049572;28;20131;-69
2024/02/16 00:10:46;;;;;;;2.20;1.42;;;10.10;99.80;;;;;;5045972;28;20073;-69
2024/02/16 00:13:11;;;;;;;2.65;1.30;;;10.00;99.70;;;;;;5048740;28;20021;-69
2024/02/16 00:15:38;;;;;;;2.30;1.27;;;10.00;99.70;;;;;;5046251;28;20107;-69
2024/02/16 00:18:04;;;;;;;2.25;1.30;;;10.10;99.90;;;;;;5047659;28;20398;-69
2024/02/16 00:20:31;;;;;;;2.97;1.42;;;10.10;99.60;;;;;;5047083;28;20029;-68
2024/02/16 00:22:56;;;;;;;4.40;1.27;;;10.10;99.50;;;;;;5044449;28;20094;-68
2024/02/16 00:25:22;;;;;;;2.67;1.30;;;10.10;99.40;;;;;;5045927;28;20192;-69
2024/02/16 00:27:48;;;;;;;1.52;1.20;;;10.20;99.20;;;;;;5046232;28;20551;-68
2024/02/16 00:30:15;;;;;;;5.47;1.33;;;10.10;99.10;;;;;;5046762;28;20041;-69
2024/02/16 00:32:41;;;;;;;1.92;0.98;;;10.10;99.20;;;;;;5049471;28;20056;-70
2024/02/16 00:35:06;;;;;;;1.88;1.00;;;10.10;99.10;;;;;;5026013;28;20509;-68
2024/02/16 00:37:32;;;;;;;2.85;1.25;;;10.10;99.20;;;;;;5049260;28;20449;-68
2024/02/16 00:39:57;;;;;;;2.60;1.38;;;10.10;99.40;;;;;;5048340;28;20045;-69
2024/02/16 00:42:23;;;;;;;0.93;0.73;;;10.10;99.20;;;;;;5045926;28;20029;-69
2024/02/16 00:44:49;;;;;;;1.80;1.00;;;10.10;99.10;;;;;;5049979;28;20043;-68
2024/02/16 00:47:16;;;;;;;1.92;1.20;;;10.10;99.20;;;;;;5047617;28;20455;-69
2024/02/16 00:49:42;;;;;;;1.20;0.75;;;10.10;99.20;;;;;;5047845;28;20044;-70
2024/02/16 00:52:07;;;;;;;1.90;1.17;;;10.00;99.30;;;;;;5047964;28;20108;-68
2024/02/16 00:54:33;;;;;;;2.47;0.90;;;10.00;99.30;;;;;;5046791;28;20041;-69
2024/02/16 00:57:02;;;;;;;1.00;0.80;;;10.00;99.50;;;;;;5046333;28;20065;-68
2024/02/16 00:59:31;;;;;;;1.10;0.88;;;10.20;99.10;;;;;;5050604;28;20072;-70
2024/02/16 01:01:56;;;;;;;1.10;0.80;;;10.10;99.00;;;;;;5048192;28;20025;-68
2024/02/16 01:04:22;;;;;;;1.83;1.00;;;10.10;99.20;;;;;;5056081;28;20120;-69
2024/02/16 01:06:48;;;;;;;2.35;0.90;;;10.10;99.30;;;;;;5046301;28;20056;-69
2024/02/16 01:09:13;;;;;;;2.72;1.10;;;10.10;99.20;;;;;;5046945;28;20514;-68
2024/02/16 01:11:42;;;;;;;3.15;1.45;;;10.10;99.10;;;;;;5045679;28;20033;-70
2024/02/16 01:14:08;;;;;;;2.42;1.10;;;10.10;99.20;;;;;;5061450;28;20042;-68
2024/02/16 01:16:35;;;;;;;3.25;1.52;;;10.10;99.20;;;;;;5048639;28;20049;-69
2024/02/16 01:19:01;;;;;;;2.40;0.85;;;10.10;99.30;;;;;;5049297;28;20507;-68
2024/02/16 01:21:26;;;;;;;2.33;1.10;;;10.10;99.40;;;;;;5046154;28;20131;-69
2024/02/16 01:23:52;;;;;;;2.88;1.00;;;10.10;99.20;;;;;;5033656;28;20025;-68
2024/02/16 01:26:17;;;;;;;2.03;1.00;;;10.10;99.20;;;;;;5044867;28;20458;-70
2024/02/16 01:28:43;;;;;;;2.72;1.33;;;10.10;99.20;;;;;;5045228;28;20132;-69
2024/02/16 01:31:09;;;;;;;2.15;1.25;;;10.10;99.00;;;;;;5049849;28;20037;-68
2024/02/16 01:33:35;;;;;;;1.50;0.90;;;10.00;99.10;;;;;;5046747;28;20184;-68
2024/02/16 01:36:02;;;;;;;2.33;1.23;;;10.00;99.20;;;;;;5047895;28;20101;-68
2024/02/16 01:38:27;;;;;;;2.60;1.30;;;10.00;99.20;;;;;;5049983;28;20033;-69
2024/02/16 01:40:53;;;;;;;1.50;1.10;;;10.00;99.40;;;;;;5049026;28;20409;-69
2024/02/16 01:43:22;;;;;;;1.85;1.05;;;9.90;99.30;;;;;;5045066;28;20041;-69
2024/02/16 01:45:47;;;;;;;1.77;1.20;;;9.90;99.40;;;;;;5048142;28;20080;-68
2024/02/16 01:48:14;;;;;;;1.92;1.08;;;10.00;99.30;;;;;;5045904;28;20071;-68
2024/02/16 01:50:43;;;;;;;3.33;1.13;;;10.00;99.20;;;;;;5046005;28;20032;-69
2024/02/16 01:53:09;;;;;;;2.90;1.50;;;10.10;99.30;;;;;;5050733;28;20067;-69
2024/02/16 01:55:35;;;;;;;2.15;1.13;;;10.00;99.10;;;;;;5054382;28;20116;-70
2024/02/16 01:58:01;;;;;;;1.98;1.30;;;10.00;99.00;;;;;;5044296;28;20111;-70
2024/02/16 02:00:26;;;;;;;3.72;1.60;;;10.00;99.00;;;;;;5045095;28;20044;-69
2024/02/16 02:02:52;;;;;;;1.73;1.08;;;10.00;99.00;;;;;;5046943;28;20037;-69
2024/02/16 02:05:17;;;;;;;4.75;1.50;;;10.00;98.80;;;;;;5049930;28;20364;-69
2024/02/16 02:07:43;;;;;;;1.30;0.93;;;9.90;99.00;;;;;;5045416;28;20085;-68
2024/02/16 02:10:09;;;;;;;1.88;1.20;;;9.90;99.00;;;;;;5049554;28;20111;-69
2024/02/16 02:12:35;;;;;;;1.25;0.90;;;9.90;99.10;;;;;;5043678;28;20025;-68
2024/02/16 02:15:00;;;;;;;1.60;1.30;;;9.90;99.00;;;;;;5046588;28;20029;-69
2024/02/16 02:17:26;;;;;;;2.00;1.15;;;9.90;99.10;;;;;;5044593;28;20040;-68
2024/02/16 02:19:51;;;;;;;6.32;1.40;;;10.00;99.10;;;;;;5045107;28;20135;-69
2024/02/16 02:22:20;;;;;;;1.95;1.10;;;9.90;99.10;;;;;;5043998;28;20064;-69
2024/02/16 02:24:46;;;;;;;1.77;1.02;;;9.90;99.00;;;;;;5044266;28;20514;-68
2024/02/16 02:27:13;;;;;;;1.95;1.10;;;9.90;99.00;;;;;;5043466;28;20139;-68
2024/02/16 02:29:39;;;;;;;5.82;1.45;;;9.90;99.00;;;;;;5043462;28;20029;-68
2024/02/16 02:32:05;;;;;;;1.58;1.00;;;9.90;98.90;;;;;;5044370;28;20064;-69
2024/02/16 02:34:30;;;;;;;2.13;1.02;;;9.90;98.90;;;;;;5040082;28;20028;-68
2024/02/16 02:36:56;;;;;;;2.88;1.10;;;10.00;98.80;;;;;;5045098;28;20032;-68
2024/02/16 02:39:21;;;;;;;1.52;1.10;;;10.00;98.70;;;;;;5052211;28;20081;-69
2024/02/16 02:41:47;;;;;;;2.50;1.10;;;10.00;98.60;;;;;;5049471;28;20052;-70
2024/02/16 02:44:13;;;;;;;1.95;1.02;;;10.00;98.70;;;;;;5044513;28;20073;-69
2024/02/16 02:46:38;;;;;;;1.25;0.93;;;10.00;98.70;;;;;;5048758;28;20116;-69
2024/02/16 02:49:04;;;;;;;1.35;0.82;;;10.00;98.50;;;;;;5046733;28;20032;-69
2024/02/16 02:51:30;;;;;;;1.25;0.85;;;10.00;98.60;;;;;;5043621;28;20037;-69
2024/02/16 02:53:55;;;;;;;2.42;1.30;;;10.00;98.40;;;;;;5045198;28;20159;-70
2024/02/16 02:56:21;;;;;;;1.10;0.90;;;10.00;98.60;;;;;;5048152;28;20016;-68
2024/02/16 02:58:46;;;;;;;1.73;1.20;;;10.00;98.30;;;;;;5047058;28;20395;-69
2024/02/16 03:01:12;;;;;;;3.55;1.02;;;10.00;98.30;;;;;;5043571;28;20047;-68
2024/02/16 03:03:39;;;;;;;2.17;1.10;;;10.00;98.20;;;;;;5045251;28;20044;-68
2024/02/16 03:06:06;;;;;;;1.60;0.85;;;10.00;98.30;;;;;;5044112;28;20045;-68
2024/02/16 03:08:31;;;;;;;2.67;0.93;;;10.00;98.30;;;;;;5044114;28;20586;-68
2024/02/16 03:11:00;;;;;;;1.88;0.95;;;10.00;98.20;;;;;;5045626;28;20243;-69
2024/02/16 03:13:25;;;;;;;2.13;1.08;;;10.10;98.00;;;;;;5043562;28;20446;-68
2024/02/16 03:15:52;;;;;;;1.48;0.80;;;10.00;97.90;;;;;;5044503;28;20171;-68
2024/02/16 03:18:18;;;;;;;1.60;1.00;;;10.00;97.90;;;;;;5044625;28;20081;-69
2024/02/16 03:20:45;;;;;;;2.20;1.00;;;10.00;97.80;;;;;;5042644;28;20390;-69
2024/02/16 03:23:11;;;;;;;2.00;0.82;;;10.00;97.70;;;;;;5045605;28;20037;-69
2024/02/16 03:25:36;;;;;;;2.55;0.80;;;10.00;97.80;;;;;;5044191;28;20033;-70
2024/02/16 03:28:02;;;;;;;1.70;0.60;;;10.00;98.00;;;;;;5044644;28;20524;-68
2024/02/16 03:30:27;;;;;;;2.63;1.05;;;10.00;97.80;;;;;;5043561;28;20131;-69
2024/02/16 03:32:53;;;;;;;0.73;0.70;;;10.00;97.70;;;;;;5043941;28;20545;-69
2024/02/16 03:35:18;;;;;;;2.65;0.98;;;10.10;97.40;;;;;;5038620;28;20026;-69
2024/02/16 03:37:44;;;;;;;1.55;0.90;;;10.00;97.70;;;;;;5046040;28;20041;-68
2024/02/16 03:40:12;;;;;;;2.13;0.80;;;10.10;97.70;;;;;;5044108;28;20123;-69
2024/02/16 03:42:38;;;;;;;1.42;1.02;;;10.10;97.50;;;;;;5044019;28;20047;-68
2024/02/16 03:45:04;;;;;;;1.20;0.70;;;10.00;97.70;;;;;;5042464;28;20041;-69
2024/02/16 03:47:30;;;;;;;2.22;0.82;;;10.00;97.60;;;;;;5045451;28;20428;-69
2024/02/16 03:49:55;;;;;;;1.83;0.90;;;10.00;97.40;;;;;;5052846;28;20036;-69
2024/02/16 03:52:21;;;;;;;1.55;0.80;;;10.00;97.60;;;;;;5053658;28;20468;-68
2024/02/16 03:54:48;;;;;;;1.10;0.80;;;10.00;97.50;;;;;;5056154;28;20028;-69
2024/02/16 03:57:16;;;;;;;2.05;1.08;;;10.00;97.60;;;;;;5047729;28;20363;-69
2024/02/16 03:59:44;;;;;;;1.10;0.90;;;9.90;97.70;;;;;;5029923;28;20055;-68
2024/02/16 04:02:10;;;;;;;1.42;0.90;;;9.90;97.90;;;;;;5049115;28;20120;-68
2024/02/16 04:04:36;;;;;;;1.30;0.77;;;9.90;97.80;;;;;;5051506;28;20429;-68
2024/02/16 04:07:02;;;;;;;1.02;0.70;;;10.00;97.60;;;;;;5048125;28;20041;-68
2024/02/16 04:09:27;;;;;;;2.65;0.98;;;10.00;97.40;;;;;;5050096;28;20366;-69
2024/02/16 04:11:53;;;;;;;1.75;0.90;;;9.90;97.50;;;;;;5049186;28;20112;-69
2024/02/16 04:14:18;;;;;;;1.13;0.73;;;9.90;97.70;;;;;;5048179;28;20356;-69
2024/02/16 04:16:44;;;;;;;1.27;0.73;;;9.90;97.60;;;;;;5046626;28;20069;-69
2024/02/16 04:19:10;;;;;;;1.52;0.90;;;9.80;97.60;;;;;;5031550;28;20025;-69
2024/02/16 04:21:35;;;;;;;1.10;0.80;;;9.80;97.80;;;;;;5048240;28;20467;-69
2024/02/16 04:24:01;;;;;;;1.13;0.75;;;9.80;97.90;;;;;;5054558;28;20024;-68
2024/02/16 04:26:26;;;;;;;0.77;0.73;;;9.90;97.70;;;;;;5048545;28;20407;-69
2024/02/16 04:28:52;;;;;;;1.63;1.00;;;9.90;97.50;;;;;;5034758;28;20024;-68
2024/02/16 04:31:17;;;;;;;0.80;0.55;;;9.90;97.40;;;;;;5042745;28;20432;-69
2024/02/16 04:33:43;;;;;;;2.38;1.02;;;9.80;97.60;;;;;;5054476;28;20190;-69
2024/02/16 04:36:08;;;;;;;1.88;0.73;;;9.80;97.50;;;;;;5048978;28;20064;-69
2024/02/16 04:38:34;;;;;;;1.23;0.55;;;9.80;97.60;;;;;;5030772;28;20037;-68
2024/02/16 04:40:59;;;;;;;1.05;0.70;;;9.80;97.50;;;;;;5047814;28;20112;-68
2024/02/16 04:43:25;;;;;;;1.40;1.00;;;9.80;97.70;;;;;;5049552;28;20112;-68
2024/02/16 04:45:50;;;;;;;1.92;0.70;;;9.80;97.60;;;;;;5051797;28;20075;-68
2024/02/16 04:48:16;;;;;;;1.83;0.82;;;9.80;97.40;;;;;;5048214;28;20079;-68
2024/02/16 04:50:41;;;;;;;1.40;0.90;;;9.90;97.30;;;;;;5050221;28;20029;-68
2024/02/16 04:53:07;;;;;;;1.88;0.95;;;9.90;97.20;;;;;;5052658;28;20041;-69
2024/02/16 04:55:33;;;;;;;0.77;0.55;;;9.90;97.20;;;;;;5053449;28;20482;-68
2024/02/16 04:57:59;;;;;;;3.30;0.90;;;9.80;97.00;;;;;;5053154;28;20095;-69
2024/02/16 05:00:24;;;;;;;0.95;0.70;;;9.90;96.90;;;;;;5047288;28;20060;-69
2024/02/16 05:02:51;;;;;;;1.83;0.95;;;9.80;96.80;;;;;;5046350;28;20033;-69
2024/02/16 05:05:17;;;;;;;2.58;1.17;;;9.80;97.20;;;;;;5050112;28;20029;-69
2024/02/16 05:07:43;;;;;;;2.28;1.08;;;9.80;97.10;;;;;;5053520;28;20344;-68
2024/02/16 05:10:09;;;;;;;2.05;1.02;;;9.70;97.20;;;;;;5053753;28;20048;-69
2024/02/16 05:12:34;;;;;;;1.02;0.60;;;9.80;97.00;;;;;;5049843;28;20156;-68
2024/02/16 05:15:00;;;;;;;4.43;0.85;;;9.80;96.80;;;;;;5046880;28;20536;-69
2024/02/16 05:17:26;;;;;;;1.20;0.70;;;9.70;96.90;;;;;;5045691;28;20044;-69
2024/02/16 05:19:52;;;;;;;3.92;0.88;;;9.70;97.10;;;;;;5048892;28;20029;-69
2024/02/16 05:22:18;;;;;;;2.08;1.00;;;9.70;97.10;;;;;;5048450;28;20367;-69
2024/02/16 05:24:44;;;;;;;1.10;0.70;;;9.70;96.90;;;;;;5050970;28;20036;-70
2024/02/16 05:27:10;;;;;;;2.00;1.00;;;9.60;96.90;;;;;;5047624;28;20464;-68
2024/02/16 05:29:36;;;;;;;1.23;0.77;;;9.60;97.00;;;;;;5047699;28;20029;-68
2024/02/16 05:32:01;;;;;;;3.35;0.65;;;9.70;96.90;;;;;;5051457;28;20040;-67
2024/02/16 05:34:32;;;;;;;1.60;0.63;;;9.70;96.70;;;;;;5046383;28;20157;-67
2024/02/16 05:36:57;;;;;;;0.77;0.60;;;9.60;96.50;;;;;;5019633;28;20266;-68
2024/02/16 05:39:26;;;;;;;2.42;0.75;;;9.60;96.80;;;;;;5049333;28;20099;-67
2024/02/16 05:41:53;;;;;;;1.23;0.93;;;9.60;96.60;;;;;;5046601;28;20482;-68
2024/02/16 05:44:19;;;;;;;1.08;0.52;;;9.50;96.80;;;;;;5047818;28;20025;-67
2024/02/16 05:46:45;;;;;;;0.77;0.60;;;9.50;96.90;;;;;;5044610;28;20168;-69
2024/02/16 05:49:11;;;;;;;0.75;0.47;;;9.60;96.70;;;;;;5044618;28;20103;-67
2024/02/16 05:51:37;;;;;;;2.22;0.80;;;9.50;96.60;;;;;;5050078;28;20063;-68
2024/02/16 05:54:03;;;;;;;3.47;0.77;;;9.50;96.70;;;;;;5057200;28;20031;-67
2024/02/16 05:56:28;;;;;;;1.13;0.80;;;9.50;96.50;;;;;;5046239;28;20321;-68
2024/02/16 05:58:54;;;;;;;1.45;0.80;;;9.60;96.60;;;;;;5048903;28;20041;-68
2024/02/16 06:01:20;;;;;;;1.92;1.00;;;9.60;96.10;;;;;;5046804;28;20040;-67
2024/02/16 06:03:45;;;;;;;1.23;0.80;;;9.50;96.50;;;;;;5046496;28;20041;-67
2024/02/16 06:06:10;;;;;;;0.63;0.60;;;9.60;96.40;;;;;;5047883;28;20095;-68
2024/02/16 06:08:36;;;;;;;1.17;0.82;;;9.60;96.20;;;;;;5049119;28;20055;-68
2024/02/16 06:11:02;;;;;;;1.33;0.60;;;9.60;96.20;;;;;;5047626;28;20032;-67
2024/02/16 06:13:29;;;;;;;0.88;0.60;;;9.50;96.10;;;;;;5052006;28;20208;-68
2024/02/16 06:15:55;;;;;;;0.77;0.60;;;9.60;96.10;;;;;;5045869;28;20463;-68
2024/02/16 06:18:20;;;;;;;2.85;0.88;;;9.60;96.00;;;;;;5049688;28;20036;-68
2024/02/16 06:20:46;;;;;;;1.25;0.70;;;9.60;96.10;;;;;;5028324;28;20072;-67
2024/02/16 06:23:11;;;;;;;1.05;0.60;;;9.60;95.90;;;;;;5049228;28;20079;-67
2024/02/16 06:25:37;;;;;;;1.25;0.70;;;9.50;96.00;;;;;;5046927;28;20032;-68
2024/02/16 06:28:04;;;;;;;1.48;0.93;;;9.50;95.90;;;;;;5044232;28;20098;-69
2024/02/16 06:30:30;;;;;;;1.65;0.77;;;9.60;95.80;;;;;;5045139;28;20117;-67
2024/02/16 06:32:55;;;;;;;1.00;0.60;;;9.60;95.90;;;;;;5044763;28;20439;-67
2024/02/16 06:35:21;;;;;;;2.00;0.60;;;9.60;95.60;;;;;;5043172;28;20098;-68
2024/02/16 06:37:46;;;;;;;0.68;0.52;;;9.40;95.80;;;;;;5049422;28;20213;-69
2024/02/16 06:40:12;;;;;;;0.77;0.65;;;9.40;96.00;;;;;;5044971;28;20486;-67
2024/02/16 06:42:38;;;;;;;0.85;0.50;;;9.30;96.10;;;;;;5044691;28;20216;-67
2024/02/16 06:45:05;;;;;;;2.22;1.13;;;9.30;96.40;;;;;;5044903;28;20032;-68
2024/02/16 06:47:31;;;;;;;2.35;0.77;;;9.20;96.10;;;;;;5044317;28;20479;-68
2024/02/16 06:49:56;;;;;;;0.70;0.57;;;9.20;96.40;;;;;;5041121;28;20144;-68
2024/02/16 06:52:22;;;;;;;1.58;0.98;;;9.20;96.20;;;;;;5040715;28;20133;-67
2024/02/16 06:54:49;;;;;;;1.60;0.70;;;9.20;95.80;;;;;;5044396;28;20044;-68
2024/02/16 06:57:14;;;;;;;2.25;0.93;;;9.40;95.90;;;;;;5040798;28;20025;-69
2024/02/16 06:59:40;;;;;;;1.58;0.90;;;9.40;95.60;;;;;;5042314;28;20369;-70
2024/02/16 07:02:07;;;;;;;1.05;0.70;;;9.50;95.40;;;;;;5043059;28;20112;-68
2024/02/16 07:04:32;;;;;;;1.55;0.70;;;9.50;95.10;;;;;;5041903;28;20081;-69
2024/02/16 07:06:58;;;;;;;1.05;0.77;;;9.50;95.10;;;;;;5041661;28;20052;-69
2024/02/16 07:09:23;;;;;;;1.90;0.70;;;9.50;95.00;;;;;;5042304;28;20131;-70
2024/02/16 07:11:50;;;;;;;1.17;0.75;;;9.60;94.30;;;;;;5042838;28;20206;-67
2024/02/16 07:14:16;;;;;;;0.95;0.70;;;9.60;94.70;;;;;;5042208;28;20532;-68
2024/02/16 07:16:41;;;;;;;1.55;0.70;;;9.60;94.80;;;;;;5042544;28;20033;-68
2024/02/16 07:19:07;;;;;;;1.20;0.60;;;9.80;93.40;;;;;;5043283;28;20029;-68
2024/02/16 07:21:32;;;;;;;1.08;0.68;;;9.70;93.90;;;;;;5044374;28;20118;-68
2024/02/16 07:23:59;;;;;;;0.70;0.52;;;9.70;94.00;;;;;;5048155;28;20049;-67
2024/02/16 07:26:25;;;;;;;1.30;0.80;;;9.60;94.60;;;;;;5045830;28;20040;-68
2024/02/16 07:28:50;;;;;;;0.98;0.57;;;9.60;94.80;;;;;;5049203;28;20119;-68
2024/02/16 07:31:16;;;;;;;1.30;0.73;;;9.60;94.60;;;;;;5048056;28;20026;-69
2024/02/16 07:33:42;;;;;;;1.05;0.65;;;9.70;94.40;;;;;;5048741;28;20406;-68
2024/02/16 07:36:07;;;;;;;1.63;0.77;;;9.70;94.50;;;;;;5043372;28;20347;-68
2024/02/16 07:38:33;;;;;;;1.00;0.60;;;9.80;94.30;;;;;;5048410;28;20073;-68
2024/02/16 07:40:59;;;;;;;1.02;0.52;;;9.90;94.20;;;;;;5045250;28;20215;-69
2024/02/16 07:43:27;;;;;;;0.88;0.63;;;10.10;93.50;;;;;;5046485;28;20125;-68
2024/02/16 07:45:53;;;;;;;1.10;0.52;;;10.10;93.60;;;;;;5043251;28;20143;-69
2024/02/16 07:48:22;;;;;;;0.43;0.38;;;10.30;93.50;;;;;;5041446;28;20490;-68
2024/02/16 07:50:50;;;;;;;0.95;0.70;;;10.50;93.00;;;;;;5044847;28;20371;-68
2024/02/16 07:53:16;;;;;;;1.35;0.73;;;10.60;93.10;;;;;;5047841;28;20489;-68
2024/02/16 07:55:41;;;;;;;2.05;0.47;;;10.80;91.80;;;;;;5048711;28;20067;-68
2024/02/16 07:58:07;;;;;;;1.92;0.43;;;10.90;91.60;;;;;;5045627;28;20533;-69
2024/02/16 08:00:32;;;;;;;0.60;0.60;;;10.90;91.20;;;;;;5049077;28;20094;-68
2024/02/16 08:02:58;;;;;;;0.43;0.30;;;11.00;91.10;;;;;;5048692;28;20033;-68
2024/02/16 08:05:25;;;;;;;1.42;0.50;;;11.00;90.70;;;;;;5045386;28;20055;-68
2024/02/16 08:07:51;;;;;;;0.45;0.40;;;11.00;90.30;;;;;;5048080;28;20039;-69
2024/02/16 08:10:20;;;;;;;0.82;0.50;;;11.00;91.00;;;;;;5047871;28;20033;-69
2024/02/16 08:12:46;;;;;;;0.50;0.50;;;11.00;90.70;;;;;;5051332;28;20029;-68
2024/02/16 08:15:12;;;;;;;1.30;0.63;;;11.10;90.50;;;;;;5049641;28;20047;-68
2024/02/16 08:17:40;;;;;;;1.10;0.70;;;11.20;90.40;;;;;;5047459;28;20029;-68
2024/02/16 08:20:07;;;;;;;1.05;0.50;;;11.20;90.30;;;;;;5051199;28;20104;-68
2024/02/16 08:22:34;;;;;;;1.30;0.35;;;11.20;90.40;;;;;;5048453;28;20116;-68
2024/02/16 08:24:59;;;;;;;0.63;0.43;;;11.20;89.80;;;;;;5044717;28;20049;-68
2024/02/16 08:27:25;;;;;;;2.17;0.60;;;11.30;89.30;;;;;;5046657;28;20105;-68
2024/02/16 08:29:51;;;;;;;1.67;0.73;;;11.30;89.50;;;;;;5036467;28;20456;-68
2024/02/16 08:32:17;;;;;;;1.23;0.60;;;11.30;89.10;;;;;;5045037;28;20098;-69
2024/02/16 08:34:43;;;;;;;0.43;0.43;;;11.30;89.90;;;;;;5044520;28;20112;-69
2024/02/16 08:37:10;;;;;;;2.67;0.60;;;11.40;88.70;;;;;;5047943;28;20109;-68
2024/02/16 08:39:38;;;;;;;0.80;0.50;;;11.40;89.40;;;;;;5045779;28;20024;-68
2024/02/16 08:42:04;;;;;;;1.15;0.63;;;11.50;88.40;;;;;;5049821;28;20036;-68
2024/02/16 08:44:29;;;;;;;0.90;0.50;;;11.50;88.90;;;;;;5045517;28;20021;-69
2024/02/16 08:46:55;;;;;;;1.15;0.60;;;11.60;88.30;;;;;;5045442;28;20347;-68
2024/02/16 08:49:20;;;;;;;2.63;0.90;;;11.50;89.50;;;;;;5043672;28;20078;-69
2024/02/16 08:51:47;;;;;;;0.85;0.60;;;11.60;88.10;;;;;;5048113;28;20393;-68
2024/02/16 08:54:13;;;;;;;0.63;0.50;;;11.60;89.60;;;;;;5049673;28;20505;-68
2024/02/16 08:56:39;;;;;;;1.00;0.60;;;11.60;89.30;;;;;;5039536;28;20076;-68
2024/02/16 08:59:05;;;;;;;0.60;0.40;;;11.80;89.00;;;;;;5048398;28;20479;-66
2024/02/16 09:01:33;;;;;;;2.20;0.98;;;11.80;88.50;;;;;;5045975;28;20067;-67
2024/02/16 09:03:59;;;;;;;2.90;0.55;;;11.80;89.20;;;;;;5044817;28;20132;-66
2024/02/16 09:06:25;;;;;;;5.35;0.60;;;11.80;89.20;;;;;;5045781;28;20029;-65
2024/02/16 09:08:51;;;;;;;0.70;0.45;;;11.90;88.80;;;;;;5051954;28;20044;-67
2024/02/16 09:11:17;;;;;;;0.73;0.40;;;11.90;89.20;;;;;;5048588;28;20454;-67
2024/02/16 09:13:43;;;;;;;1.52;0.60;;;11.90;88.20;;;;;;5044096;28;20119;-66
2024/02/16 09:16:08;;;;;;;0.55;0.47;;;11.90;88.30;;;;;;5045820;28;20401;-66
2024/02/16 09:18:33;;;;;;;2.33;0.70;;;11.90;88.80;;;;;;5042714;28;20039;-67
2024/02/16 09:20:59;;;;;;;1.88;0.60;;;11.90;88.70;;;;;;5046423;28;20032;-66
2024/02/16 09:23:26;;;;;;;0.75;0.45;;;12.00;88.20;;;;;;5048675;28;20037;-66
2024/02/16 09:25:51;;;;;;;0.68;0.50;;;12.00;87.90;;;;;;5045298;28;20028;-67
2024/02/16 09:28:20;;;;;;;1.77;0.70;;;12.10;86.80;;;;;;5050176;28;20060;-66
2024/02/16 09:30:46;;;;;;;3.50;0.52;;;12.20;87.00;;;;;;5047663;28;20086;-66
2024/02/16 09:33:11;;;;;;;1.45;0.52;;;12.30;87.00;;;;;;5028347;28;20036;-66
2024/02/16 09:35:37;;;;;;;0.45;0.40;;;12.40;87.00;;;;;;5043439;28;20467;-67
2024/02/16 09:38:03;;;;;;;1.92;0.60;;;12.50;87.20;;;;;;5048872;28;20062;-67
2024/02/16 09:40:28;;;;;;;1.05;0.73;;;12.60;86.70;;;;;;5046828;28;20119;-66
2024/02/16 09:42:54;;;;;;;2.10;0.85;;;12.60;86.20;;;;;;5045560;28;20085;-64
2024/02/16 09:45:19;;;;;;;0.50;0.30;;;12.70;86.80;;;;;;5044882;28;20124;-65
2024/02/16 09:47:46;;;;;;;0.85;0.52;;;12.70;85.60;;;;;;5045212;28;20185;-65
2024/02/16 09:50:12;;;;;;;0.73;0.50;;;12.80;84.60;;;;;;5043901;28;20060;-65
2024/02/16 09:52:39;;;;;;;1.67;0.80;;;12.80;85.90;;;;;;5046831;28;20114;-65
2024/02/16 09:55:10;;;;;;;1.10;0.60;;;12.80;86.30;;;;;;5047629;28;20089;-66
2024/02/16 09:57:35;;;;;;;0.68;0.52;;;13.00;85.50;;;;;;5047120;28;20058;-65
2024/02/16 10:00:03;;;;;;;1.33;0.50;;;13.20;85.10;;;;;;5044705;28;20423;-66
2024/02/16 10:02:41;;;;;;;1.77;0.70;;;13.10;85.90;;;;;;5044063;28;20110;-65
2024/02/16 10:05:18;;;;;;;2.92;0.90;;;13.10;85.10;;;;;;5047087;28;20029;-65
2024/02/16 10:07:45;;;;;;;1.73;0.70;;;13.00;85.50;;;;;;5052411;28;20040;-65
2024/02/16 10:10:24;;;;;;;0.95;0.70;;;12.90;85.30;;;;;;5046102;28;20045;-65
2024/02/16 10:13:00;;;;;;;2.40;0.80;;;12.90;84.10;;;;;;5044953;28;20052;-65
2024/02/16 10:15:25;;;;;;;0.25;0.25;;;12.90;85.10;;;;;;5043643;28;20057;-65
2024/02/16 10:18:01;;;;;;;1.40;0.60;;;12.90;85.50;;;;;;5046650;28;20131;-65
2024/02/16 10:20:27;;;;;;;0.90;0.50;;;12.90;85.50;;;;;;5047257;28;20270;-65
2024/02/16 10:23:06;;;;;;;0.60;0.60;;;12.90;85.80;;;;;;5050517;28;20039;-65
2024/02/16 10:25:32;;;;;;;3.67;0.60;;;13.00;85.90;;;;;;5043688;28;20021;-65
2024/02/16 10:27:58;;;;;;;0.55;0.50;;;12.90;86.50;;;;;;5050465;28;20127;-65
2024/02/16 10:30:30;;;;;;;1.10;0.57;;;12.90;86.20;;;;;;5048798;28;20033;-65
2024/02/16 10:32:56;;;;;;;1.55;0.80;;;12.90;85.60;;;;;;5047766;28;20123;-65
2024/02/16 10:35:24;;;;;;;0.88;0.38;;;12.90;86.30;;;;;;5039421;28;20501;-65
2024/02/16 10:37:50;;;;;;;0.90;0.63;;;13.00;86.80;;;;;;5045845;28;20435;-65
2024/02/16 10:40:19;;;;;;;1.83;0.70;;;13.00;86.50;;;;;;5056641;28;20025;-66
2024/02/16 10:42:46;;;;;;;1.45;0.70;;;13.00;86.90;;;;;;5047035;28;20040;-66
2024/02/16 10:45:13;;;;;;;1.20;0.60;;;13.00;85.60;;;;;;5048304;28;20483;-66
2024/02/16 10:47:39;;;;;;;0.85;0.60;;;13.00;86.20;;;;;;5040001;28;20033;-66
2024/02/16 10:50:06;;;;;;;1.33;0.57;;;13.00;87.00;;;;;;5044678;28;20051;-66
2024/02/16 10:52:32;;;;;;;1.00;0.70;;;13.10;85.90;;;;;;5044575;28;20082;-67
2024/02/16 10:54:58;;;;;;;2.65;0.80;;;13.10;85.90;;;;;;5042952;28;20043;-66
2024/02/16 10:57:24;;;;;;;1.90;0.88;;;13.20;86.00;;;;;;5041145;28;20115;-66
2024/02/16 10:59:54;;;;;;;2.13;0.70;;;13.10;86.70;;;;;;5042757;28;20219;-65
2024/02/16 11:02:19;;;;;;;1.08;0.70;;;13.20;86.00;;;;;;5043442;28;20025;-65
2024/02/16 11:04:47;;;;;;;0.65;0.65;;;13.20;85.30;;;;;;5043710;28;20036;-65
2024/02/16 11:07:16;;;;;;;2.03;0.80;;;13.30;86.30;;;;;;5046170;28;20036;-65
2024/02/16 11:09:42;;;;;;;1.08;0.55;;;13.20;86.30;;;;;;5045621;28;20052;-65
2024/02/16 11:12:08;;;;;;;0.77;0.55;;;13.30;86.50;;;;;;5043801;28;20025;-65
2024/02/16 11:14:38;;;;;;;1.30;0.60;;;13.30;86.30;;;;;;5042877;28;20037;-65
2024/02/16 11:17:11;;;;;;;0.80;0.60;;;13.30;85.90;;;;;;5044864;28;20063;-65
2024/02/16 11:19:40;;;;;;;1.15;0.45;;;13.40;85.60;;;;;;5049725;28;20495;-66
2024/02/16 11:22:11;;;;;;;2.47;0.80;;;13.40;86.10;;;;;;5046439;28;20029;-66
2024/02/16 11:24:37;;;;;;;1.60;0.50;;;13.50;85.20;;;;;;5046792;28;20144;-65
2024/02/16 11:27:07;;;;;;;1.98;0.75;;;13.50;85.30;;;;;;5050253;28;20383;-65
2024/02/16 11:29:36;;;;;;;3.42;1.17;;;13.60;85.50;;;;;;5051747;28;20199;-66
2024/02/16 11:32:02;;;;;;;0.95;0.50;;;13.60;84.80;;;;;;5045991;28;20047;-65
2024/02/16 11:34:29;;;;;;;1.27;0.75;;;13.70;84.90;;;;;;5051138;28;20104;-65
2024/02/16 11:36:56;;;;;;;2.08;0.93;;;13.70;84.80;;;;;;5047644;28;20491;-67
2024/02/16 11:39:23;;;;;;;0.98;0.40;;;13.70;84.10;;;;;;5051122;28;20123;-67
2024/02/16 11:42:05;;;;;;;1.63;0.60;;;13.80;84.60;;;;;;5043669;28;20408;-68
2024/02/16 11:44:32;;;;;;;1.02;0.57;;;13.80;84.30;;;;;;5052150;28;20103;-67
2024/02/16 11:46:58;;;;;;;1.90;0.93;;;13.80;84.50;;;;;;5043471;28;20150;-68
2024/02/16 11:49:24;;;;;;;1.75;0.77;;;13.80;84.10;;;;;;5045408;28;20458;-67
2024/02/16 11:51:50;;;;;;;0.90;0.70;;;13.90;84.00;;;;;;5047525;28;20059;-68
2024/02/16 11:54:15;;;;;;;0.60;0.55;;;14.00;84.20;;;;;;5037847;28;20029;-68
2024/02/16 11:56:51;;;;;;;0.82;0.65;;;14.00;83.80;;;;;;5043988;28;20543;-67
2024/02/16 11:59:18;;;;;;;1.17;0.60;;;14.00;84.30;;;;;;5045255;28;20182;-67
2024/02/16 12:01:58;;;;;;;3.22;0.98;;;14.00;84.00;;;;;;5042338;28;20037;-68
2024/02/16 12:04:28;;;;;;;1.35;0.70;;;14.00;83.90;;;;;;5022825;28;20119;-69
2024/02/16 12:06:58;;;;;;;3.45;0.98;;;14.00;84.00;;;;;;5047136;28;20070;-67
2024/02/16 12:09:24;;;;;;;2.57;1.00;;;14.00;84.00;;;;;;5049555;28;20036;-68
2024/02/16 12:11:50;;;;;;;2.22;0.93;;;14.00;83.70;;;;;;5048145;28;20029;-65
2024/02/16 12:14:17;;;;;;;2.00;1.17;;;14.00;84.20;;;;;;5049055;28;20348;-66
2024/02/16 12:16:47;;;;;;;3.42;0.90;;;14.00;84.00;;;;;;5046288;28;20045;-66
2024/02/16 12:19:12;;;;;;;0.90;0.60;;;14.00;83.90;;;;;;5049269;28;20047;-66
2024/02/16 12:21:38;;;;;;;1.95;0.70;;;14.00;84.40;;;;;;5049621;28;20109;-65
2024/02/16 12:24:04;;;;;;;1.13;0.90;;;14.00;84.60;;;;;;5048135;28;20153;-66
2024/02/16 12:26:29;;;;;;;3.65;1.27;;;13.90;84.90;;;;;;5030463;28;20045;-65
2024/02/16 12:28:55;;;;;;;1.60;0.80;;;13.90;85.00;;;;;;5055369;28;20482;-65
2024/02/16 12:31:21;;;;;;;3.53;1.17;;;13.80;85.50;;;;;;5053959;28;20043;-65
2024/02/16 12:33:47;;;;;;;1.15;0.88;;;13.80;85.70;;;;;;5055215;28;20115;-66
2024/02/16 12:36:12;;;;;;;1.92;0.88;;;13.80;85.40;;;;;;5052578;28;20180;-66
2024/02/16 12:38:38;;;;;;;1.80;1.00;;;13.80;85.50;;;;;;5051796;28;20029;-66
2024/02/16 12:41:04;;;;;;;2.45;1.10;;;13.90;85.90;;;;;;5045857;28;20079;-65
2024/02/16 12:43:29;;;;;;;2.25;1.10;;;13.90;86.00;;;;;;5046043;28;20025;-65
2024/02/16 12:45:55;;;;;;;1.95;0.93;;;13.90;86.30;;;;;;5043857;28;20021;-65